Terminal Aerodrome Forecast
Issued by NWS

Home | Current Version | Previous Version | Text Only | Print | Product List | Glossary On
Versions: 1 2 3 4 5 6 7 8 9 10 11 12 13 14 15 16 17 18 19 20
000
FTUS45 KFGZ 012327
TAFGCN
TAF
KGCN 012327Z 0200/0224 24008KT P6SM VCTS SCT080CB BKN110
      TEMPO 0200/0202 VRB15G25KT -TSRA BKN070CB
     FM020300 VRB05KT P6SM SCT080 SCT110
     FM021800 28006KT P6SM SCT090 SCT120 PROB30 0220/0224 5SM -TSRA
      BKN060CB=

USA.gov is the U.S. government's official web portal to all federal, state and local government web resources and services.